Time;durP1;ratioP1;P1;durP2;ratioP2;P2;SDS_P1;SDS_P2;PMS_P1;PMS_P2;Temp;Humidity;BMP_temperature;BMP_pressure;BME280_temperature;BME280_humidity;BME280_pressure;Samples;Min_cycle;Max_cycle;Signal;HPM_P1;HPM_P2
2022/12/28 00:01:17;;;;;;;2.40;1.27;;;8.40;99.90;;;;;;4957181;28;20176;-76
2022/12/28 00:03:46;;;;;;;1.50;1.17;;;8.40;99.90;;;;;;4951534;28;20168;-76
2022/12/28 00:06:15;;;;;;;2.67;1.20;;;8.50;99.90;;;;;;4960876;28;20215;-75
2022/12/28 00:08:41;;;;;;;3.57;1.77;;;8.40;99.90;;;;;;4959546;28;20276;-75
2022/12/28 00:11:12;;;;;;;2.43;1.20;;;8.40;99.90;;;;;;4960167;28;20230;-75
2022/12/28 00:13:38;;;;;;;2.20;1.20;;;8.50;99.90;;;;;;4959723;28;20242;-75
2022/12/28 00:16:09;;;;;;;1.97;1.10;;;8.50;99.90;;;;;;4956545;28;20287;-75
2022/12/28 00:18:37;;;;;;;2.53;1.10;;;8.50;99.90;;;;;;4979557;28;20172;-75
2022/12/28 00:21:03;;;;;;;2.43;1.57;;;8.60;99.90;;;;;;4962747;28;20199;-74
2022/12/28 00:23:29;;;;;;;2.53;1.30;;;8.60;99.90;;;;;;4959189;28;20176;-74
2022/12/28 00:26:03;;;;;;;2.63;1.00;;;8.70;99.90;;;;;;4941371;29;20191;-75
2022/12/28 00:28:29;;;;;;;2.27;1.27;;;8.60;99.90;;;;;;4955772;28;20207;-74
2022/12/28 00:30:59;;;;;;;4.87;1.20;;;8.60;99.90;;;;;;4957445;28;20211;-74
2022/12/28 00:33:24;;;;;;;3.47;1.40;;;8.60;99.90;;;;;;4968930;28;20192;-75
2022/12/28 00:35:59;;;;;;;2.70;1.40;;;8.70;99.90;;;;;;4950481;28;20291;-76
2022/12/28 00:38:32;;;;;;;2.57;1.83;;;8.70;99.90;;;;;;4970625;28;20176;-75
2022/12/28 00:41:00;;;;;;;3.13;1.60;;;8.70;99.90;;;;;;4955698;28;20216;-74
2022/12/28 00:43:26;;;;;;;2.03;1.30;;;8.70;99.90;;;;;;4970817;28;20220;-75
2022/12/28 00:45:52;;;;;;;2.37;1.30;;;8.80;99.90;;;;;;4957469;28;20176;-75
2022/12/28 00:48:17;;;;;;;3.63;1.23;;;8.80;99.90;;;;;;4954661;28;20204;-74
2022/12/28 00:50:44;;;;;;;2.83;1.30;;;8.80;99.90;;;;;;4959576;28;20188;-75
2022/12/28 00:53:10;;;;;;;2.67;1.10;;;8.80;99.90;;;;;;4954116;28;20239;-76
2022/12/28 00:55:36;;;;;;;3.00;1.10;;;8.70;99.90;;;;;;4961383;28;20188;-76
2022/12/28 00:58:05;;;;;;;4.37;1.20;;;8.90;99.90;;;;;;4955441;28;20180;-75
2022/12/28 01:00:31;;;;;;;1.93;1.10;;;8.80;99.90;;;;;;4948033;28;20212;-75
2022/12/28 01:02:59;;;;;;;1.67;1.20;;;8.90;99.90;;;;;;4956349;28;20217;-74
2022/12/28 01:05:28;;;;;;;3.00;1.53;;;8.90;99.90;;;;;;4958462;28;20177;-75
2022/12/28 01:07:55;;;;;;;2.33;1.20;;;8.90;99.90;;;;;;4959294;28;20350;-75
2022/12/28 01:10:23;;;;;;;2.83;1.67;;;9.00;99.90;;;;;;4948857;28;20184;-76
2022/12/28 01:12:49;;;;;;;1.80;1.03;;;9.00;99.90;;;;;;4958619;28;20203;-75
2022/12/28 01:15:17;;;;;;;2.70;1.30;;;9.00;99.90;;;;;;4953571;28;20164;-75
2022/12/28 01:17:42;;;;;;;1.50;1.37;;;9.00;99.90;;;;;;4957494;28;20233;-74
2022/12/28 01:20:13;;;;;;;2.77;1.30;;;9.00;99.90;;;;;;4955518;28;20204;-74
2022/12/28 01:22:39;;;;;;;3.03;1.43;;;9.00;99.90;;;;;;4958244;28;20176;-75
2022/12/28 01:25:07;;;;;;;3.37;1.20;;;9.10;99.90;;;;;;4955444;28;20191;-75
2022/12/28 01:27:35;;;;;;;2.13;1.47;;;9.10;99.90;;;;;;4957628;28;20215;-75
2022/12/28 01:30:00;;;;;;;1.90;1.23;;;9.10;99.90;;;;;;4957258;28;20230;-75
2022/12/28 01:32:28;;;;;;;2.30;1.20;;;9.10;99.90;;;;;;4958898;28;20253;-75
2022/12/28 01:34:54;;;;;;;2.30;1.10;;;9.10;99.90;;;;;;4956451;28;20199;-74
2022/12/28 01:37:21;;;;;;;2.40;1.37;;;9.20;99.90;;;;;;4958744;28;20254;-74
2022/12/28 01:39:49;;;;;;;1.60;1.10;;;9.10;99.90;;;;;;4956820;28;20192;-72
2022/12/28 01:42:20;;;;;;;3.27;1.50;;;9.20;99.90;;;;;;4954208;28;20211;-75
2022/12/28 01:44:50;;;;;;;2.13;1.10;;;9.20;99.90;;;;;;4952876;28;20281;-75
2022/12/28 01:47:23;;;;;;;1.47;1.17;;;9.20;99.90;;;;;;4959835;28;20196;-75
2022/12/28 01:50:01;;;;;;;3.30;1.50;;;9.20;99.90;;;;;;4960690;28;20192;-75
2022/12/28 01:52:36;;;;;;;3.80;1.33;;;9.20;99.90;;;;;;4973870;28;20214;-74
2022/12/28 01:55:10;;;;;;;5.80;1.57;;;9.20;99.90;;;;;;4961686;28;20186;-74
2022/12/28 01:57:46;;;;;;;1.97;1.30;;;9.30;99.90;;;;;;4959117;28;20207;-74
2022/12/28 02:00:17;;;;;;;1.90;1.40;;;9.30;99.90;;;;;;4958313;28;20183;-74
2022/12/28 02:02:49;;;;;;;2.67;1.40;;;9.30;99.90;;;;;;4958379;28;20187;-74
2022/12/28 02:05:16;;;;;;;3.47;1.67;;;9.30;99.90;;;;;;4974867;28;20180;-74
2022/12/28 02:07:53;;;;;;;4.20;1.30;;;9.30;99.90;;;;;;4962251;28;20180;-75
2022/12/28 02:10:19;;;;;;;2.73;1.30;;;9.30;99.90;;;;;;4962873;28;20199;-75
2022/12/28 02:12:47;;;;;;;2.10;1.50;;;9.30;99.90;;;;;;4960271;28;20271;-75
2022/12/28 02:15:15;;;;;;;2.10;1.43;;;9.20;99.90;;;;;;4953121;28;20266;-74
2022/12/28 02:17:43;;;;;;;3.00;1.40;;;9.30;99.90;;;;;;4971737;28;20181;-74
2022/12/28 02:20:10;;;;;;;2.20;1.27;;;9.30;99.90;;;;;;4963066;28;20180;-75
2022/12/28 02:22:54;;;;;;;2.17;1.30;;;9.30;99.90;;;;;;4956771;28;20210;-76
2022/12/28 02:25:43;;;;;;;3.80;1.30;;;9.30;99.90;;;;;;4963061;28;20184;-75
2022/12/28 02:28:30;;;;;;;3.03;1.53;;;9.40;99.90;;;;;;4976749;28;20194;-75
2022/12/28 02:31:05;;;;;;;2.70;1.70;;;9.30;99.90;;;;;;4958482;28;20331;-74
2022/12/28 02:33:54;;;;;;;3.83;1.40;;;9.30;99.90;;;;;;4959597;28;20191;-75
2022/12/28 02:36:26;;;;;;;1.83;1.30;;;9.40;99.90;;;;;;4951276;28;20264;-75
2022/12/28 02:39:04;;;;;;;1.80;1.30;;;9.40;99.90;;;;;;4960085;28;20184;-74
2022/12/28 02:41:31;;;;;;;1.60;1.20;;;9.40;99.90;;;;;;4992592;28;20190;-75
2022/12/28 02:44:01;;;;;;;2.30;1.20;;;9.30;99.90;;;;;;4961299;28;20286;-75
2022/12/28 02:52:38;;;;;;;3.00;1.43;;;9.40;99.90;;;;;;4975736;28;20238;-75
2022/12/28 02:58:46;;;;;;;2.53;1.37;;;9.40;99.90;;;;;;4976567;28;21665;-74
2022/12/28 03:01:26;;;;;;;2.83;1.30;;;9.50;99.90;;;;;;4959840;28;20215;-74
2022/12/28 03:04:28;;;;;;;3.33;1.30;;;9.50;99.90;;;;;;4973737;28;20192;-74
2022/12/28 03:10:17;;;;;;;4.00;1.23;;;9.50;99.90;;;;;;4931191;28;20180;-75
2022/12/28 03:12:56;;;;;;;2.57;1.23;;;9.50;99.90;;;;;;4960223;28;20260;-75
2022/12/28 03:15:28;;;;;;;2.60;1.40;;;9.50;99.90;;;;;;4959512;28;20208;-74
2022/12/28 03:32:13;;;;;;;1.53;1.10;;;9.70;99.90;;;;;;4971049;28;20202;-74
2022/12/28 03:34:39;;;;;;;3.23;1.93;;;9.60;99.90;;;;;;4959110;28;20180;-75
2022/12/28 03:37:13;;;;;;;2.17;1.20;;;9.70;99.90;;;;;;4958280;28;20201;-75
2022/12/28 03:40:04;;;;;;;1.80;1.10;;;9.70;99.90;;;;;;4961879;28;20217;-75
2022/12/28 03:45:35;;;;;;;1.37;1.00;;;9.70;99.90;;;;;;4971991;28;20285;-74
2022/12/28 03:48:02;;;;;;;2.33;1.07;;;9.70;99.90;;;;;;4956148;28;20240;-74
2022/12/28 03:50:29;;;;;;;2.00;1.20;;;9.80;99.90;;;;;;4957798;28;20196;-75
2022/12/28 03:52:57;;;;;;;2.30;1.50;;;9.80;99.90;;;;;;4954845;28;20388;-75
2022/12/28 03:55:23;;;;;;;2.50;1.57;;;9.80;99.90;;;;;;4954321;28;20176;-75
2022/12/28 03:57:49;;;;;;;2.73;1.33;;;9.90;99.90;;;;;;4957843;28;20176;-74
2022/12/28 04:00:15;;;;;;;2.73;1.33;;;9.80;99.90;;;;;;4961090;28;20216;-75
2022/12/28 04:02:43;;;;;;;1.40;1.00;;;9.80;99.90;;;;;;4955965;28;20188;-74
2022/12/28 04:05:09;;;;;;;1.43;1.10;;;9.90;99.90;;;;;;4952976;28;20180;-75
2022/12/28 04:07:37;;;;;;;1.50;1.00;;;9.90;99.90;;;;;;4955518;28;20423;-75
2022/12/28 04:10:03;;;;;;;1.50;1.00;;;9.90;99.90;;;;;;4955731;28;20180;-74
2022/12/28 04:12:28;;;;;;;1.70;1.10;;;9.90;99.90;;;;;;4958241;28;20226;-74
2022/12/28 04:14:54;;;;;;;2.92;1.20;;;10.10;99.90;;;;;;4964569;28;20175;-75
2022/12/28 04:17:19;;;;;;;2.07;1.17;;;10.00;99.90;;;;;;4959735;28;20172;-74
2022/12/28 04:19:45;;;;;;;1.60;1.10;;;10.00;99.90;;;;;;4959752;28;20199;-75
2022/12/28 04:22:10;;;;;;;1.48;1.13;;;10.00;99.90;;;;;;4956775;28;20180;-74
2022/12/28 04:24:36;;;;;;;2.35;1.08;;;10.10;99.90;;;;;;4961941;28;20290;-75
2022/12/28 04:27:02;;;;;;;2.45;1.20;;;10.10;99.90;;;;;;4958060;28;20270;-74
2022/12/28 04:29:29;;;;;;;1.30;1.00;;;10.10;99.90;;;;;;4961732;28;20180;-75
2022/12/28 04:31:55;;;;;;;1.45;1.10;;;10.10;99.90;;;;;;4960355;28;20187;-75
2022/12/28 04:34:23;;;;;;;2.28;1.10;;;10.10;99.90;;;;;;4960212;28;20196;-75
2022/12/28 04:36:49;;;;;;;2.42;1.13;;;10.10;99.90;;;;;;4961175;28;20203;-75
2022/12/28 04:39:14;;;;;;;2.03;1.00;;;10.20;99.90;;;;;;4962700;28;20565;-74
2022/12/28 04:41:42;;;;;;;3.20;1.30;;;10.20;99.90;;;;;;4956236;28;20217;-76
2022/12/28 04:44:08;;;;;;;2.45;1.17;;;10.10;99.90;;;;;;4969215;28;20213;-74
2022/12/28 04:46:38;;;;;;;1.60;1.10;;;10.20;99.90;;;;;;4954442;28;20247;-75
2022/12/28 04:49:04;;;;;;;1.50;0.80;;;10.20;99.90;;;;;;4955541;28;20233;-75
2022/12/28 04:51:32;;;;;;;1.40;0.90;;;10.30;99.90;;;;;;4954500;28;20480;-75
2022/12/28 04:54:03;;;;;;;1.98;0.93;;;10.20;99.90;;;;;;4975075;28;20195;-73
2022/12/28 04:56:28;;;;;;;2.00;1.00;;;10.20;99.90;;;;;;4957190;28;20191;-74
2022/12/28 04:58:59;;;;;;;2.28;0.88;;;10.30;99.90;;;;;;4968396;28;20202;-73
2022/12/28 05:01:25;;;;;;;2.08;0.98;;;10.30;99.90;;;;;;4955144;28;20211;-74
2022/12/28 05:03:53;;;;;;;1.98;1.00;;;10.40;99.90;;;;;;4960696;28;20192;-73
2022/12/28 05:06:20;;;;;;;1.38;0.90;;;10.30;99.90;;;;;;4960460;28;20194;-74
2022/12/28 05:08:47;;;;;;;2.47;1.00;;;10.40;99.90;;;;;;4956979;28;20212;-74
2022/12/28 05:11:24;;;;;;;1.33;0.90;;;10.40;99.90;;;;;;4958816;28;20242;-74
2022/12/28 05:13:52;;;;;;;2.95;0.93;;;10.40;99.90;;;;;;4958429;28;20188;-74
2022/12/28 05:16:20;;;;;;;1.42;0.98;;;10.50;99.90;;;;;;4970068;28;20222;-75
2022/12/28 05:18:46;;;;;;;1.00;0.75;;;10.60;99.90;;;;;;4949800;28;20263;-74
2022/12/28 05:21:13;;;;;;;1.48;0.90;;;10.50;99.90;;;;;;4955083;28;20263;-74
2022/12/28 05:23:38;;;;;;;1.20;0.90;;;10.60;99.90;;;;;;4954163;28;20200;-74
2022/12/28 05:26:06;;;;;;;0.55;0.55;;;10.50;99.90;;;;;;4957524;28;20230;-75
2022/12/28 05:28:34;;;;;;;1.00;0.80;;;10.60;99.90;;;;;;4963283;28;20282;-76
2022/12/28 05:31:02;;;;;;;1.77;0.90;;;10.70;99.90;;;;;;4957977;28;20203;-74
2022/12/28 05:33:29;;;;;;;1.63;0.82;;;10.60;99.90;;;;;;4951987;28;20211;-74
2022/12/28 05:35:55;;;;;;;0.90;0.80;;;10.70;99.90;;;;;;4954140;28;20219;-74
2022/12/28 05:38:21;;;;;;;0.60;0.60;;;10.70;99.90;;;;;;4957495;28;20246;-74
2022/12/28 05:40:46;;;;;;;1.15;0.80;;;10.70;99.90;;;;;;4954810;28;20187;-74
2022/12/28 05:43:14;;;;;;;1.02;0.70;;;10.70;99.90;;;;;;4971148;28;20451;-75
2022/12/28 05:45:44;;;;;;;1.73;0.70;;;10.60;99.90;;;;;;4958366;28;20254;-72
2022/12/28 05:48:12;;;;;;;0.95;0.80;;;10.70;99.90;;;;;;4956962;28;20443;-74
2022/12/28 05:50:39;;;;;;;1.08;0.70;;;10.70;99.90;;;;;;4957402;28;20188;-74
2022/12/28 05:53:05;;;;;;;1.45;0.80;;;10.70;99.90;;;;;;4956539;28;20195;-75
2022/12/28 05:55:33;;;;;;;2.40;1.10;;;10.70;99.90;;;;;;4958985;28;20208;-73
2022/12/28 05:57:58;;;;;;;3.05;1.00;;;10.80;99.90;;;;;;4956971;28;20195;-73
2022/12/28 06:00:24;;;;;;;1.73;1.10;;;10.80;99.90;;;;;;4961877;28;20222;-74
2022/12/28 06:02:53;;;;;;;1.92;0.80;;;10.80;99.90;;;;;;4960332;28;20194;-74
2022/12/28 06:05:19;;;;;;;2.20;0.80;;;10.90;99.90;;;;;;4957371;28;20230;-74
2022/12/28 06:07:44;;;;;;;0.77;0.60;;;10.90;99.90;;;;;;4958733;28;20180;-75
2022/12/28 06:10:12;;;;;;;0.95;0.57;;;10.90;99.90;;;;;;4956612;28;20184;-74
2022/12/28 06:12:38;;;;;;;1.45;0.73;;;10.90;99.90;;;;;;4956290;28;20242;-75
2022/12/28 06:15:04;;;;;;;1.33;0.70;;;10.90;99.90;;;;;;4949053;28;20204;-75
2022/12/28 06:17:29;;;;;;;2.03;0.60;;;10.90;99.90;;;;;;4960543;28;20221;-75
2022/12/28 06:19:55;;;;;;;1.55;0.77;;;11.00;99.90;;;;;;4959744;28;20246;-75
2022/12/28 06:22:21;;;;;;;1.38;0.70;;;10.90;99.90;;;;;;4958589;28;20258;-75
2022/12/28 06:24:47;;;;;;;2.88;1.05;;;10.90;99.90;;;;;;4954689;28;20215;-74
2022/12/28 06:27:13;;;;;;;1.45;0.82;;;11.00;99.90;;;;;;4958301;28;20187;-75
2022/12/28 06:29:38;;;;;;;1.42;0.70;;;11.00;99.90;;;;;;4962264;28;20188;-75
2022/12/28 06:32:06;;;;;;;1.20;0.63;;;11.00;99.90;;;;;;4960030;28;20283;-74
2022/12/28 06:34:34;;;;;;;1.10;0.57;;;11.10;99.90;;;;;;4961248;28;20175;-74
2022/12/28 06:37:03;;;;;;;1.90;0.70;;;11.00;99.90;;;;;;4959886;28;20753;-74
2022/12/28 06:39:28;;;;;;;1.85;0.80;;;11.10;99.90;;;;;;4961886;28;20180;-76
2022/12/28 06:41:54;;;;;;;1.27;0.65;;;11.10;99.90;;;;;;4957957;28;20280;-74
2022/12/28 06:44:26;;;;;;;1.15;0.85;;;11.10;99.90;;;;;;4961123;28;20168;-74
2022/12/28 06:46:52;;;;;;;1.90;0.70;;;11.10;99.90;;;;;;4957968;28;20200;-76
2022/12/28 06:49:18;;;;;;;1.48;0.70;;;11.20;99.90;;;;;;4966116;28;20180;-74
2022/12/28 06:51:43;;;;;;;1.52;0.60;;;11.10;99.90;;;;;;4974440;28;20330;-73
2022/12/28 06:54:09;;;;;;;1.13;0.60;;;11.20;99.90;;;;;;4967867;28;20219;-75
2022/12/28 06:56:36;;;;;;;0.90;0.50;;;11.10;99.90;;;;;;4958605;28;20177;-74
2022/12/28 06:59:02;;;;;;;0.90;0.70;;;11.30;99.90;;;;;;4960859;28;20184;-76
2022/12/28 07:01:34;;;;;;;1.75;0.50;;;11.20;99.90;;;;;;4956813;28;20204;-75
2022/12/28 07:04:01;;;;;;;1.50;0.70;;;11.20;99.90;;;;;;4955664;28;20184;-76
2022/12/28 07:06:28;;;;;;;1.33;0.60;;;11.30;99.90;;;;;;4954189;28;20181;-75
2022/12/28 07:08:59;;;;;;;1.02;0.60;;;11.20;99.90;;;;;;4958019;28;20215;-75
2022/12/28 07:11:25;;;;;;;0.60;0.55;;;11.20;99.90;;;;;;4956009;28;20199;-75
2022/12/28 07:13:50;;;;;;;1.27;0.80;;;11.20;99.90;;;;;;4957935;28;20207;-75
2022/12/28 07:16:18;;;;;;;1.00;0.68;;;11.20;99.90;;;;;;4957026;28;20259;-75
2022/12/28 07:18:47;;;;;;;0.43;0.30;;;11.30;99.90;;;;;;4957398;28;20183;-74
2022/12/28 07:21:19;;;;;;;0.60;0.60;;;11.30;99.90;;;;;;4960406;28;20266;-75
2022/12/28 07:23:45;;;;;;;1.77;0.90;;;11.40;99.90;;;;;;4956999;28;20187;-76
2022/12/28 07:26:19;;;;;;;0.90;0.60;;;11.40;99.90;;;;;;4957940;28;20175;-75
2022/12/28 07:28:49;;;;;;;0.95;0.60;;;11.30;99.90;;;;;;4960344;28;20294;-75
2022/12/28 07:31:21;;;;;;;1.95;1.17;;;11.30;99.90;;;;;;4961848;28;20191;-76
2022/12/28 07:33:50;;;;;;;1.52;0.75;;;11.30;99.90;;;;;;4958682;28;20224;-74
2022/12/28 07:36:19;;;;;;;1.15;0.57;;;11.30;99.90;;;;;;4962635;28;20180;-74
2022/12/28 07:38:45;;;;;;;0.57;0.50;;;11.30;99.90;;;;;;4961443;28;20192;-74
2022/12/28 07:41:13;;;;;;;0.70;0.50;;;11.30;99.90;;;;;;4957949;28;20191;-74
2022/12/28 07:43:41;;;;;;;0.95;0.40;;;11.30;99.90;;;;;;4953092;28;20184;-74
2022/12/28 07:46:19;;;;;;;1.08;0.70;;;11.30;99.90;;;;;;4975590;28;20243;-74
2022/12/28 07:48:45;;;;;;;0.60;0.50;;;11.40;99.90;;;;;;4956919;28;20180;-75
2022/12/28 07:51:12;;;;;;;1.15;0.70;;;11.30;99.90;;;;;;4957808;28;20184;-75
2022/12/28 07:53:39;;;;;;;0.80;0.55;;;11.30;99.90;;;;;;4961835;28;20274;-75
2022/12/28 07:56:08;;;;;;;0.90;0.70;;;11.30;99.90;;;;;;4962210;28;20254;-76
2022/12/28 07:58:34;;;;;;;0.80;0.60;;;11.30;99.90;;;;;;4955882;28;20175;-75
2022/12/28 08:01:11;;;;;;;0.85;0.68;;;11.30;99.90;;;;;;4957820;28;20204;-75
2022/12/28 08:03:37;;;;;;;1.17;0.77;;;11.40;99.90;;;;;;4957892;28;20180;-73
2022/12/28 08:06:11;;;;;;;1.55;0.70;;;11.40;99.90;;;;;;4966051;28;20270;-74
2022/12/28 08:08:39;;;;;;;1.70;0.90;;;11.40;99.90;;;;;;4954552;28;20185;-73
2022/12/28 08:11:09;;;;;;;1.20;0.90;;;11.40;99.90;;;;;;4959580;28;20220;-74
2022/12/28 08:13:39;;;;;;;2.85;1.30;;;11.40;99.90;;;;;;4959869;28;20259;-74
2022/12/28 08:16:05;;;;;;;3.17;0.98;;;11.50;99.90;;;;;;4955350;28;20172;-74
2022/12/28 08:18:32;;;;;;;1.10;0.60;;;11.40;99.90;;;;;;4956463;28;20205;-75
2022/12/28 08:21:02;;;;;;;1.73;0.70;;;11.40;99.90;;;;;;4958448;28;20199;-75
2022/12/28 08:23:29;;;;;;;1.65;0.80;;;11.40;99.90;;;;;;4959226;28;20230;-74
2022/12/28 08:25:55;;;;;;;2.53;0.90;;;11.50;99.90;;;;;;4954673;28;20207;-74
2022/12/28 08:28:23;;;;;;;1.23;0.60;;;11.50;99.90;;;;;;4960751;28;21624;-74
2022/12/28 08:30:49;;;;;;;1.20;0.80;;;11.50;99.90;;;;;;4960006;28;20223;-76
2022/12/28 08:33:14;;;;;;;1.13;0.70;;;11.50;99.90;;;;;;4957884;28;20254;-74
2022/12/28 08:35:40;;;;;;;3.28;0.88;;;11.50;99.90;;;;;;4958668;28;20180;-75
2022/12/28 08:38:08;;;;;;;1.35;0.90;;;11.50;99.90;;;;;;4958608;28;20180;-75
2022/12/28 08:40:34;;;;;;;1.52;1.05;;;11.50;99.90;;;;;;4960473;28;20412;-75
2022/12/28 08:43:03;;;;;;;2.80;1.27;;;11.60;99.90;;;;;;4956568;28;20187;-74
2022/12/28 08:45:28;;;;;;;1.38;0.80;;;11.50;99.90;;;;;;4957328;28;20340;-76
2022/12/28 08:47:54;;;;;;;1.63;0.80;;;11.50;99.90;;;;;;4959160;28;20202;-74
2022/12/28 08:50:20;;;;;;;2.03;0.90;;;11.50;99.90;;;;;;4957509;28;20183;-75
2022/12/28 08:52:45;;;;;;;2.13;0.95;;;11.60;99.90;;;;;;4956193;28;20219;-74
2022/12/28 08:55:11;;;;;;;0.95;0.73;;;11.60;99.90;;;;;;4959529;28;20191;-74
2022/12/28 08:57:37;;;;;;;1.80;1.00;;;11.60;99.90;;;;;;4958904;28;20254;-78
2022/12/28 09:00:07;;;;;;;1.25;0.70;;;11.50;99.90;;;;;;4958050;28;20445;-74
2022/12/28 09:02:35;;;;;;;2.13;0.98;;;11.60;99.90;;;;;;4958865;28;20184;-75
2022/12/28 09:05:00;;;;;;;2.28;0.82;;;11.70;99.90;;;;;;4954046;28;20244;-74
2022/12/28 09:07:26;;;;;;;1.25;0.90;;;11.60;99.90;;;;;;4957356;28;20275;-74
2022/12/28 09:09:51;;;;;;;1.20;0.88;;;11.60;99.90;;;;;;4957991;28;20176;-74
2022/12/28 09:12:17;;;;;;;2.70;1.08;;;11.70;99.90;;;;;;4957261;28;20298;-74
2022/12/28 09:14:42;;;;;;;1.52;0.98;;;11.70;99.90;;;;;;4959579;28;20172;-76
2022/12/28 09:17:11;;;;;;;4.05;1.30;;;11.70;99.90;;;;;;4954260;28;20197;-74
2022/12/28 09:19:41;;;;;;;0.60;0.50;;;11.70;99.90;;;;;;4953598;28;20203;-73
2022/12/28 09:22:06;;;;;;;2.03;0.77;;;11.70;99.90;;;;;;4954249;28;20181;-75
2022/12/28 09:24:34;;;;;;;1.13;0.80;;;11.80;99.90;;;;;;4960420;28;20196;-76
2022/12/28 09:27:00;;;;;;;1.92;0.80;;;11.80;99.90;;;;;;4957046;28;20172;-74
2022/12/28 09:29:25;;;;;;;1.05;0.73;;;11.80;99.90;;;;;;4956678;28;20180;-74
2022/12/28 09:31:51;;;;;;;0.95;0.68;;;11.90;99.90;;;;;;4958321;28;20195;-75
2022/12/28 09:34:17;;;;;;;5.65;1.40;;;11.80;99.90;;;;;;4958419;28;20230;-74
2022/12/28 09:36:43;;;;;;;1.08;0.68;;;11.80;99.90;;;;;;4957313;28;20222;-74
2022/12/28 09:39:17;;;;;;;1.15;0.68;;;11.90;99.90;;;;;;4960666;28;20176;-74
2022/12/28 09:42:13;;;;;;;3.15;0.73;;;11.80;99.90;;;;;;4949267;28;20184;-75
2022/12/28 09:44:39;;;;;;;1.65;0.63;;;11.90;99.90;;;;;;4952323;28;20199;-75
2022/12/28 09:47:22;;;;;;;1.98;0.80;;;11.90;99.90;;;;;;4958504;28;20176;-74
2022/12/28 09:50:24;;;;;;;1.17;0.70;;;11.90;99.90;;;;;;4953887;28;20180;-75
2022/12/28 09:53:05;;;;;;;1.65;0.90;;;12.00;99.90;;;;;;4965605;28;20199;-73
2022/12/28 09:55:41;;;;;;;1.30;0.70;;;12.00;99.90;;;;;;4969998;28;20183;-77
2022/12/28 09:58:17;;;;;;;1.30;0.77;;;12.00;99.90;;;;;;4948998;28;20199;-76
2022/12/28 10:00:44;;;;;;;1.40;0.80;;;12.00;99.90;;;;;;4955771;28;20195;-75
2022/12/28 10:03:26;;;;;;;1.10;0.60;;;12.10;99.90;;;;;;4959498;28;20191;-75
2022/12/28 10:05:54;;;;;;;1.17;0.70;;;12.10;99.90;;;;;;4966649;28;20226;-76
2022/12/28 10:08:24;;;;;;;0.75;0.52;;;12.10;99.90;;;;;;4956141;28;20190;-76
2022/12/28 10:10:54;;;;;;;0.60;0.50;;;12.10;99.90;;;;;;4950709;28;20271;-74
2022/12/28 10:13:23;;;;;;;1.90;0.88;;;12.10;99.90;;;;;;4953613;28;20492;-75
2022/12/28 10:15:58;;;;;;;0.60;0.50;;;12.20;99.90;;;;;;4961016;28;20261;-75
2022/12/28 10:18:26;;;;;;;1.95;1.23;;;12.20;99.90;;;;;;4971212;28;20271;-74
2022/12/28 10:20:52;;;;;;;0.90;0.80;;;12.20;99.90;;;;;;4955318;28;20180;-74
2022/12/28 10:23:32;;;;;;;1.67;0.90;;;12.20;99.90;;;;;;4959721;28;20512;-76
2022/12/28 10:25:59;;;;;;;1.75;0.80;;;12.30;99.90;;;;;;4960645;28;20219;-74
2022/12/28 10:28:32;;;;;;;1.70;0.70;;;12.30;99.90;;;;;;4956165;28;20180;-76
2022/12/28 10:31:13;;;;;;;2.22;0.95;;;12.30;99.90;;;;;;4972681;28;20295;-73
2022/12/28 10:33:40;;;;;;;1.40;0.80;;;12.40;99.90;;;;;;4962085;28;20217;-73
2022/12/28 10:36:14;;;;;;;1.65;1.00;;;12.30;99.90;;;;;;4961394;28;20250;-73
2022/12/28 10:38:48;;;;;;;1.77;0.90;;;12.30;99.90;;;;;;4961580;28;20195;-75
2022/12/28 10:41:15;;;;;;;1.85;0.93;;;12.40;99.90;;;;;;4958573;28;20513;-74
2022/12/28 10:43:51;;;;;;;1.90;0.95;;;12.30;99.90;;;;;;4960716;28;20181;-72
2022/12/28 10:53:00;;;;;;;3.65;1.20;;;12.40;99.90;;;;;;4991101;28;20211;-74
2022/12/28 10:55:32;;;;;;;1.80;1.10;;;12.60;99.90;;;;;;4962140;28;20180;-75
2022/12/28 10:58:20;;;;;;;1.38;0.98;;;12.50;99.90;;;;;;4963018;28;20187;-73
2022/12/28 11:00:54;;;;;;;2.47;1.08;;;12.50;99.90;;;;;;4956838;28;20187;-75
2022/12/28 11:03:42;;;;;;;2.30;1.10;;;12.50;99.90;;;;;;4953596;28;20271;-74
2022/12/28 11:06:23;;;;;;;3.47;1.17;;;12.50;99.90;;;;;;4946140;29;20196;-73
2022/12/28 11:09:43;;;;;;;1.20;1.00;;;12.50;99.90;;;;;;4959536;28;20172;-74
2022/12/28 11:12:23;;;;;;;1.63;1.00;;;12.50;99.90;;;;;;4965396;28;20179;-73
2022/12/28 11:14:49;;;;;;;2.08;1.27;;;12.50;99.90;;;;;;4957760;29;20189;-73
2022/12/28 11:17:23;;;;;;;1.63;0.82;;;12.60;99.90;;;;;;4948164;28;20187;-76
2022/12/28 11:19:56;;;;;;;2.83;0.90;;;12.50;99.90;;;;;;4965053;28;20190;-73
2022/12/28 11:59:40;;;;;;;1.45;0.77;;;12.50;99.90;;;;;;4984084;28;20207;-73
2022/12/28 12:03:15;;;;;;;;;;;;;;;;;;;;;
2022/12/28 12:16:55;;;;;;;1.00;0.68;;;12.40;99.90;;;;;;4963148;28;20192;-73
2022/12/28 12:23:31;;;;;;;1.02;0.77;;;12.50;99.90;;;;;;4952987;28;20195;-71
2022/12/28 12:36:33;;;;;;;1.98;1.00;;;12.50;99.90;;;;;;4875904;29;20266;-72
2022/12/28 12:39:25;;;;;;;3.47;0.90;;;12.50;99.90;;;;;;4967638;28;20211;-73
2022/12/28 12:42:12;;;;;;;1.15;0.70;;;12.50;99.90;;;;;;4953208;28;20184;-72
2022/12/28 12:45:02;;;;;;;2.92;0.90;;;12.50;99.90;;;;;;4953441;28;20235;-72
2022/12/28 12:48:05;;;;;;;1.35;0.70;;;12.50;99.90;;;;;;4963685;28;20266;-71
2022/12/28 12:50:52;;;;;;;1.17;0.60;;;12.50;99.90;;;;;;4875856;29;20503;-72
2022/12/28 12:53:20;;;;;;;1.30;0.82;;;12.50;99.90;;;;;;4977934;28;20227;-74
2022/12/28 12:56:15;;;;;;;2.65;0.82;;;12.50;99.90;;;;;;4955709;28;20200;-74
2022/12/28 12:59:23;;;;;;;1.25;0.80;;;12.50;99.90;;;;;;4952165;28;20200;-74
2022/12/28 13:05:20;;;;;;;1.48;0.75;;;12.60;99.90;;;;;;4965338;28;20235;-75
2022/12/28 13:07:54;;;;;;;6.60;4.10;;;12.60;99.90;;;;;;4959610;28;20287;-73
2022/12/28 13:10:32;;;;;;;3.88;2.10;;;12.60;99.90;;;;;;4943369;29;20280;-74
2022/12/28 13:13:02;;;;;;;2.03;1.27;;;12.60;99.90;;;;;;4950666;28;20196;-76
2022/12/28 13:15:29;;;;;;;1.48;0.98;;;12.70;99.90;;;;;;4959392;28;20242;-73
2022/12/28 13:18:03;;;;;;;1.33;0.80;;;12.60;99.90;;;;;;4976309;28;20256;-75
2022/12/28 13:20:30;;;;;;;0.93;0.60;;;12.60;99.90;;;;;;4959719;28;20241;-73
2022/12/28 13:22:55;;;;;;;1.30;0.93;;;12.60;99.90;;;;;;4959416;28;20412;-73
2022/12/28 13:25:31;;;;;;;1.75;0.80;;;12.70;99.90;;;;;;4958995;28;20207;-74
2022/12/28 13:27:59;;;;;;;1.40;0.85;;;12.70;99.90;;;;;;4966356;28;20180;-73
2022/12/28 13:30:26;;;;;;;0.90;0.60;;;12.60;99.90;;;;;;4957130;28;20198;-73
2022/12/28 13:32:58;;;;;;;1.58;0.70;;;12.70;99.90;;;;;;4966225;28;20192;-74
2022/12/28 13:35:35;;;;;;;1.10;0.70;;;12.70;99.90;;;;;;4955323;28;20228;-75
2022/12/28 13:38:15;;;;;;;1.30;0.73;;;12.60;99.90;;;;;;4953046;28;20244;-73
2022/12/28 13:40:53;;;;;;;2.90;0.90;;;12.70;99.90;;;;;;4955355;28;20179;-73
2022/12/28 13:43:50;;;;;;;1.42;0.90;;;12.70;99.90;;;;;;4962267;28;20184;-74
2022/12/28 13:46:20;;;;;;;2.13;1.00;;;12.70;99.90;;;;;;4965410;28;20194;-75
2022/12/28 13:48:50;;;;;;;2.45;1.10;;;12.60;99.90;;;;;;4965026;28;20176;-75
2022/12/28 13:51:18;;;;;;;2.53;1.10;;;12.60;99.90;;;;;;4953158;28;20290;-74
2022/12/28 13:53:49;;;;;;;1.42;0.90;;;12.60;99.90;;;;;;4958139;28;20222;-74
2022/12/28 13:56:20;;;;;;;1.48;0.90;;;12.60;99.90;;;;;;4958838;28;20267;-74
2022/12/28 14:01:34;;;;;;;1.95;0.90;;;12.60;99.90;;;;;;4980197;28;20234;-73
2022/12/28 14:04:22;;;;;;;1.58;0.80;;;12.60;99.90;;;;;;4964181;28;20209;-73
2022/12/28 14:06:49;;;;;;;1.33;0.75;;;12.60;99.90;;;;;;4949708;28;20271;-74
2022/12/28 14:09:15;;;;;;;3.47;0.90;;;12.60;99.90;;;;;;4957633;28;20251;-75
2022/12/28 14:11:42;;;;;;;1.70;0.82;;;12.60;99.90;;;;;;4955570;29;20239;-74
2022/12/28 14:14:12;;;;;;;1.42;0.90;;;12.60;99.90;;;;;;4957882;28;20441;-74
2022/12/28 14:16:39;;;;;;;1.35;0.70;;;12.60;99.90;;;;;;4958765;28;20175;-74
2022/12/28 14:19:05;;;;;;;1.25;0.65;;;12.70;99.90;;;;;;4959221;28;20263;-74
2022/12/28 14:21:37;;;;;;;1.48;0.98;;;12.60;99.90;;;;;;4961896;28;20234;-72
2022/12/28 14:24:06;;;;;;;2.08;1.00;;;12.60;99.90;;;;;;4958589;28;20176;-72
2022/12/28 14:26:52;;;;;;;1.58;1.00;;;12.60;99.90;;;;;;4954856;28;20180;-74
2022/12/28 14:29:34;;;;;;;1.40;0.88;;;12.60;99.90;;;;;;4967872;28;20208;-73
2022/12/28 14:32:06;;;;;;;1.60;1.10;;;12.60;99.90;;;;;;4958392;28;20191;-75
2022/12/28 14:34:37;;;;;;;1.92;1.17;;;12.60;99.90;;;;;;4959296;28;20188;-73
2022/12/28 14:37:04;;;;;;;2.00;1.20;;;12.60;99.90;;;;;;4959838;28;20177;-73
2022/12/28 14:39:48;;;;;;;1.98;1.10;;;12.50;99.90;;;;;;4957414;28;20325;-74
2022/12/28 14:42:34;;;;;;;2.90;1.08;;;12.60;99.90;;;;;;4955882;28;20196;-72
2022/12/28 14:45:22;;;;;;;2.55;0.90;;;12.60;99.90;;;;;;4959378;28;20176;-74
2022/12/28 14:47:55;;;;;;;1.67;0.90;;;12.60;99.90;;;;;;4953355;28;20172;-73
2022/12/28 14:50:55;;;;;;;1.33;0.98;;;12.50;99.90;;;;;;4956713;28;20176;-73
2022/12/28 14:53:22;;;;;;;2.00;1.23;;;12.50;99.90;;;;;;4954525;28;20201;-73
2022/12/28 14:56:20;;;;;;;1.48;1.00;;;12.50;99.90;;;;;;4956748;28;20231;-73